sensor_id;sensor_type;location;lat;lon;timestamp;pressure;altitude;pressure_sealevel;temperature;humidity
30935;BME280;51033;42.648;23.292;2023-04-07T00:00:19;93548.03;;;0.79;43.21
30935;BME280;51033;42.648;23.292;2023-04-07T00:02:45;93551.19;;;0.81;43.16
30935;BME280;51033;42.648;23.292;2023-04-07T00:05:11;93534.97;;;0.89;43.09
30935;BME280;51033;42.648;23.292;2023-04-07T00:07:36;93557.00;;;0.98;43.17
30935;BME280;51033;42.648;23.292;2023-04-07T00:10:02;93537.34;;;0.96;42.82
30935;BME280;51033;42.648;23.292;2023-04-07T00:12:27;93533.44;;;1.03;42.17
30935;BME280;51033;42.648;23.292;2023-04-07T00:14:53;93539.47;;;1.09;42.10
30935;BME280;51033;42.648;23.292;2023-04-07T00:17:18;93541.56;;;1.12;42.11
30935;BME280;51033;42.648;23.292;2023-04-07T00:19:43;93530.81;;;1.08;42.76
30935;BME280;51033;42.648;23.292;2023-04-07T00:22:09;93539.22;;;1.15;42.54
30935;BME280;51033;42.648;23.292;2023-04-07T00:24:34;93526.34;;;1.09;42.49
30935;BME280;51033;42.648;23.292;2023-04-07T00:27:00;93536.81;;;0.84;42.73
30935;BME280;51033;42.648;23.292;2023-04-07T00:29:26;93548.34;;;0.88;42.77
30935;BME280;51033;42.648;23.292;2023-04-07T00:31:51;93517.41;;;0.74;42.26
30935;BME280;51033;42.648;23.292;2023-04-07T00:34:16;93488.59;;;0.49;42.06
30935;BME280;51033;42.648;23.292;2023-04-07T00:36:42;93528.69;;;0.85;42.54
30935;BME280;51033;42.648;23.292;2023-04-07T00:39:07;93539.97;;;0.96;42.35
30935;BME280;51033;42.648;23.292;2023-04-07T00:41:34;93515.88;;;0.73;41.88
30935;BME280;51033;42.648;23.292;2023-04-07T00:44:00;93521.84;;;0.54;42.47
30935;BME280;51033;42.648;23.292;2023-04-07T00:46:25;93537.78;;;0.52;42.88
30935;BME280;51033;42.648;23.292;2023-04-07T00:48:51;93532.53;;;0.52;42.65
30935;BME280;51033;42.648;23.292;2023-04-07T00:51:20;93540.16;;;0.54;43.24
30935;BME280;51033;42.648;23.292;2023-04-07T00:53:46;93516.31;;;0.55;43.37
30935;BME280;51033;42.648;23.292;2023-04-07T00:56:11;93533.09;;;0.69;42.64
30935;BME280;51033;42.648;23.292;2023-04-07T00:58:37;93526.38;;;0.89;42.82
30935;BME280;51033;42.648;23.292;2023-04-07T01:01:14;93537.38;;;1.06;42.12
30935;BME280;51033;42.648;23.292;2023-04-07T01:04:11;93547.28;;;0.99;42.33
30935;BME280;51033;42.648;23.292;2023-04-07T01:06:45;93544.13;;;0.82;42.95
30935;BME280;51033;42.648;23.292;2023-04-07T01:09:36;93537.56;;;0.79;42.69
30935;BME280;51033;42.648;23.292;2023-04-07T01:12:09;93529.19;;;0.72;42.54
30935;BME280;51033;42.648;23.292;2023-04-07T01:14:41;93535.50;;;0.86;42.60
30935;BME280;51033;42.648;23.292;2023-04-07T01:17:09;93507.50;;;0.87;42.50
30935;BME280;51033;42.648;23.292;2023-04-07T01:20:01;93491.53;;;0.78;42.35
30935;BME280;51033;42.648;23.292;2023-04-07T01:22:33;93512.75;;;0.97;42.35
30935;BME280;51033;42.648;23.292;2023-04-07T01:25:52;93532.13;;;1.16;42.67
30935;BME280;51033;42.648;23.292;2023-04-07T01:30:28;93506.97;;;1.00;42.42
30935;BME280;51033;42.648;23.292;2023-04-07T01:32:58;93522.19;;;1.08;42.57
30935;BME280;51033;42.648;23.292;2023-04-07T01:35:26;93511.69;;;0.83;43.08
30935;BME280;51033;42.648;23.292;2023-04-07T01:37:52;93516.94;;;0.93;43.19
30935;BME280;51033;42.648;23.292;2023-04-07T01:40:20;93489.97;;;0.87;42.43
30935;BME280;51033;42.648;23.292;2023-04-07T01:42:47;93524.28;;;1.11;42.24
30935;BME280;51033;42.648;23.292;2023-04-07T01:45:15;93516.41;;;1.01;42.67
30935;BME280;51033;42.648;23.292;2023-04-07T01:47:40;93498.06;;;0.80;42.29
30935;BME280;51033;42.648;23.292;2023-04-07T01:50:08;93512.19;;;0.90;42.37
30935;BME280;51033;42.648;23.292;2023-04-07T01:52:35;93523.72;;;0.94;42.14
30935;BME280;51033;42.648;23.292;2023-04-07T01:55:04;93484.97;;;0.80;41.52
30935;BME280;51033;42.648;23.292;2023-04-07T01:57:30;93503.31;;;0.86;42.29
30935;BME280;51033;42.648;23.292;2023-04-07T01:59:55;93505.91;;;0.86;42.14
30935;BME280;51033;42.648;23.292;2023-04-07T02:02:21;93499.13;;;1.00;42.06
30935;BME280;51033;42.648;23.292;2023-04-07T02:07:37;93477.91;;;1.01;41.73
30935;BME280;51033;42.648;23.292;2023-04-07T02:10:05;93506.75;;;1.37;41.23
30935;BME280;51033;42.648;23.292;2023-04-07T02:12:36;93497.84;;;1.28;40.86
30935;BME280;51033;42.648;23.292;2023-04-07T02:15:02;93491.03;;;1.32;40.67
30935;BME280;51033;42.648;23.292;2023-04-07T02:17:29;93468.47;;;1.36;40.79
30935;BME280;51033;42.648;23.292;2023-04-07T02:19:56;93474.50;;;1.36;40.54
30935;BME280;51033;42.648;23.292;2023-04-07T02:22:24;93509.88;;;1.44;40.46
30935;BME280;51033;42.648;23.292;2023-04-07T02:24:50;93509.88;;;1.34;41.19
30935;BME280;51033;42.648;23.292;2023-04-07T02:27:16;93487.38;;;1.28;40.74
30935;BME280;51033;42.648;23.292;2023-04-07T02:29:41;93489.94;;;1.53;40.88
30935;BME280;51033;42.648;23.292;2023-04-07T02:32:06;93496.47;;;1.71;40.24
30935;BME280;51033;42.648;23.292;2023-04-07T02:34:32;93483.06;;;1.72;40.02
30935;BME280;51033;42.648;23.292;2023-04-07T02:36:57;93504.31;;;1.81;40.28
30935;BME280;51033;42.648;23.292;2023-04-07T02:39:23;93506.94;;;1.81;40.90
30935;BME280;51033;42.648;23.292;2023-04-07T02:41:48;93493.31;;;1.68;40.12
30935;BME280;51033;42.648;23.292;2023-04-07T02:44:13;93505.13;;;1.76;40.34
30935;BME280;51033;42.648;23.292;2023-04-07T02:46:39;93512.44;;;1.84;40.41
30935;BME280;51033;42.648;23.292;2023-04-07T02:49:05;93497.50;;;1.80;40.38
30935;BME280;51033;42.648;23.292;2023-04-07T02:51:31;93491.22;;;1.91;39.81
30935;BME280;51033;42.648;23.292;2023-04-07T02:53:56;93492.75;;;1.82;40.30
30935;BME280;51033;42.648;23.292;2023-04-07T02:56:21;93489.41;;;1.66;40.42
30935;BME280;51033;42.648;23.292;2023-04-07T02:58:47;93499.56;;;1.83;40.42
30935;BME280;51033;42.648;23.292;2023-04-07T03:01:12;93499.84;;;1.91;40.14
30935;BME280;51033;42.648;23.292;2023-04-07T03:03:38;93520.06;;;1.96;40.36
30935;BME280;51033;42.648;23.292;2023-04-07T03:06:04;93517.41;;;1.86;40.37
30935;BME280;51033;42.648;23.292;2023-04-07T03:08:29;93517.44;;;1.91;40.35
30935;BME280;51033;42.648;23.292;2023-04-07T03:10:55;93506.94;;;1.91;40.12
30935;BME280;51033;42.648;23.292;2023-04-07T03:13:21;93502.75;;;1.80;40.21
30935;BME280;51033;42.648;23.292;2023-04-07T03:15:46;93465.31;;;1.49;40.52
30935;BME280;51033;42.648;23.292;2023-04-07T03:18:12;93518.22;;;1.86;40.56
30935;BME280;51033;42.648;23.292;2023-04-07T03:20:37;93524.78;;;1.89;40.74
30935;BME280;51033;42.648;23.292;2023-04-07T03:23:06;93508.00;;;1.75;40.58
30935;BME280;51033;42.648;23.292;2023-04-07T03:25:31;93515.06;;;1.94;40.50
30935;BME280;51033;42.648;23.292;2023-04-07T03:27:57;93519.00;;;1.92;40.55
30935;BME280;51033;42.648;23.292;2023-04-07T03:30:22;93524.78;;;1.89;40.60
30935;BME280;51033;42.648;23.292;2023-04-07T03:32:48;93509.59;;;1.71;40.74
30935;BME280;51033;42.648;23.292;2023-04-07T03:35:13;93517.97;;;1.62;41.25
30935;BME280;51033;42.648;23.292;2023-04-07T03:37:39;93496.75;;;1.44;41.55
30935;BME280;51033;42.648;23.292;2023-04-07T03:40:05;93505.41;;;1.39;41.36
30935;BME280;51033;42.648;23.292;2023-04-07T03:42:30;93499.38;;;1.49;41.09
30935;BME280;51033;42.648;23.292;2023-04-07T03:44:55;93484.19;;;1.46;41.62
30935;BME280;51033;42.648;23.292;2023-04-07T03:47:21;93486.28;;;1.54;41.27
30935;BME280;51033;42.648;23.292;2023-04-07T03:49:46;93515.84;;;1.85;41.02
30935;BME280;51033;42.648;23.292;2023-04-07T03:52:12;93482.31;;;1.72;41.31
30935;BME280;51033;42.648;23.292;2023-04-07T03:54:37;93488.06;;;1.74;41.18
30935;BME280;51033;42.648;23.292;2023-04-07T03:57:03;93497.50;;;1.85;41.12
30935;BME280;51033;42.648;23.292;2023-04-07T03:59:28;93511.34;;;2.11;40.89
30935;BME280;51033;42.648;23.292;2023-04-07T04:01:56;93503.19;;;2.12;40.33
30935;BME280;51033;42.648;23.292;2023-04-07T04:04:21;93519.44;;;2.19;40.53
30935;BME280;51033;42.648;23.292;2023-04-07T04:06:49;93502.19;;;1.98;40.30
30935;BME280;51033;42.648;23.292;2023-04-07T04:09:14;93511.66;;;1.84;40.81
30935;BME280;51033;42.648;23.292;2023-04-07T04:11:40;93493.56;;;1.77;41.07
30935;BME280;51033;42.648;23.292;2023-04-07T04:14:05;93496.97;;;1.78;40.66
30935;BME280;51033;42.648;23.292;2023-04-07T04:16:31;93511.41;;;1.70;41.42
30935;BME280;51033;42.648;23.292;2023-04-07T04:18:57;93504.59;;;1.59;41.55
30935;BME280;51033;42.648;23.292;2023-04-07T04:21:23;93490.72;;;1.43;41.48
30935;BME280;51033;42.648;23.292;2023-04-07T04:23:48;93502.00;;;1.54;41.71
30935;BME280;51033;42.648;23.292;2023-04-07T04:26:13;93533.44;;;1.29;42.37
30935;BME280;51033;42.648;23.292;2023-04-07T04:28:40;93483.13;;;0.71;42.88
30935;BME280;51033;42.648;23.292;2023-04-07T04:31:05;93525.84;;;1.07;43.05
30935;BME280;51033;42.648;23.292;2023-04-07T04:33:30;93527.94;;;1.20;42.79
30935;BME280;51033;42.648;23.292;2023-04-07T04:35:56;93512.50;;;0.93;43.00
30935;BME280;51033;42.648;23.292;2023-04-07T04:38:21;93525.31;;;1.10;42.63
30935;BME280;51033;42.648;23.292;2023-04-07T04:40:46;93502.00;;;0.88;43.39
30935;BME280;51033;42.648;23.292;2023-04-07T04:43:12;93540.00;;;1.16;43.07
30935;BME280;51033;42.648;23.292;2023-04-07T04:45:37;93536.06;;;1.03;42.89
30935;BME280;51033;42.648;23.292;2023-04-07T04:48:03;93541.00;;;0.90;43.51
30935;BME280;51033;42.648;23.292;2023-04-07T04:50:28;93517.97;;;0.82;43.70
30935;BME280;51033;42.648;23.292;2023-04-07T04:52:53;93534.22;;;1.04;42.71
30935;BME280;51033;42.648;23.292;2023-04-07T04:55:19;93498.06;;;0.96;42.90
30935;BME280;51033;42.648;23.292;2023-04-07T04:57:44;93531.38;;;1.36;42.69
30935;BME280;51033;42.648;23.292;2023-04-07T05:00:10;93529.53;;;1.51;41.82
30935;BME280;51033;42.648;23.292;2023-04-07T05:02:36;93543.69;;;1.55;42.12
30935;BME280;51033;42.648;23.292;2023-04-07T05:05:01;93530.28;;;1.62;41.91
30935;BME280;51033;42.648;23.292;2023-04-07T05:07:27;93511.19;;;1.56;41.26
30935;BME280;51033;42.648;23.292;2023-04-07T05:09:52;93498.56;;;1.68;41.36
30935;BME280;51033;42.648;23.292;2023-04-07T05:12:17;93543.84;;;2.20;41.06
30935;BME280;51033;42.648;23.292;2023-04-07T05:14:43;93528.91;;;2.15;40.75
30935;BME280;51033;42.648;23.292;2023-04-07T05:17:08;93554.84;;;2.22;40.44
30935;BME280;51033;42.648;23.292;2023-04-07T05:19:34;93550.63;;;2.26;41.74
30935;BME280;51033;42.648;23.292;2023-04-07T05:21:59;93563.47;;;2.32;39.91
30935;BME280;51033;42.648;23.292;2023-04-07T05:24:27;93547.25;;;2.30;40.52
30935;BME280;51033;42.648;23.292;2023-04-07T05:26:53;93563.16;;;2.54;39.78
30935;BME280;51033;42.648;23.292;2023-04-07T05:29:18;93565.44;;;2.66;39.80
30935;BME280;51033;42.648;23.292;2023-04-07T05:31:43;93553.69;;;2.58;40.12
30935;BME280;51033;42.648;23.292;2023-04-07T05:34:09;93542.84;;;2.70;38.89
30935;BME280;51033;42.648;23.292;2023-04-07T05:36:34;93550.19;;;2.78;38.59
30935;BME280;51033;42.648;23.292;2023-04-07T05:39:00;93505.44;;;2.44;40.23
30935;BME280;51033;42.648;23.292;2023-04-07T05:41:25;93572.59;;;3.04;39.41
30935;BME280;51033;42.648;23.292;2023-04-07T05:43:51;93530.81;;;2.69;42.54
30935;BME280;51033;42.648;23.292;2023-04-07T05:46:16;93560.31;;;2.35;44.29
30935;BME280;51033;42.648;23.292;2023-04-07T05:48:42;93573.19;;;2.37;45.59
30935;BME280;51033;42.648;23.292;2023-04-07T05:51:07;93563.34;;;2.68;45.93
30935;BME280;51033;42.648;23.292;2023-04-07T05:53:33;93566.19;;;1.82;46.82
30935;BME280;51033;42.648;23.292;2023-04-07T05:55:58;93580.34;;;1.81;47.58
30935;BME280;51033;42.648;23.292;2023-04-07T05:58:24;93577.44;;;2.07;44.31
30935;BME280;51033;42.648;23.292;2023-04-07T06:00:49;93575.16;;;2.65;41.01
30935;BME280;51033;42.648;23.292;2023-04-07T06:03:15;93564.16;;;2.68;40.41
30935;BME280;51033;42.648;23.292;2023-04-07T06:05:40;93550.38;;;2.86;40.07
30935;BME280;51033;42.648;23.292;2023-04-07T06:08:08;93561.63;;;2.97;40.34
30935;BME280;51033;42.648;23.292;2023-04-07T06:10:34;93563.50;;;3.35;39.16
30935;BME280;51033;42.648;23.292;2023-04-07T06:13:00;93561.31;;;3.48;39.29
30935;BME280;51033;42.648;23.292;2023-04-07T06:15:25;93569.22;;;3.43;39.31
30935;BME280;51033;42.648;23.292;2023-04-07T06:17:50;93551.63;;;3.38;38.96
30935;BME280;51033;42.648;23.292;2023-04-07T06:20:16;93569.34;;;3.61;38.71
30935;BME280;51033;42.648;23.292;2023-04-07T06:22:41;93555.25;;;3.81;38.67
30935;BME280;51033;42.648;23.292;2023-04-07T06:25:07;93572.81;;;4.14;37.87
30935;BME280;51033;42.648;23.292;2023-04-07T06:27:34;93580.03;;;4.33;37.63
30935;BME280;51033;42.648;23.292;2023-04-07T06:30:00;93555.19;;;4.15;37.19
30935;BME280;51033;42.648;23.292;2023-04-07T06:32:25;93552.19;;;4.21;38.55
30935;BME280;51033;42.648;23.292;2023-04-07T06:34:50;93564.91;;;4.14;38.00
30935;BME280;51033;42.648;23.292;2023-04-07T06:37:16;93558.75;;;4.00;37.75
30935;BME280;51033;42.648;23.292;2023-04-07T06:39:42;93536.78;;;3.86;38.39
30935;BME280;51033;42.648;23.292;2023-04-07T06:42:07;93529.13;;;3.61;38.52
30935;BME280;51033;42.648;23.292;2023-04-07T06:44:33;93563.13;;;3.81;38.48
30935;BME280;51033;42.648;23.292;2023-04-07T06:46:58;93548.28;;;3.32;39.32
30935;BME280;51033;42.648;23.292;2023-04-07T06:49:24;93556.66;;;3.34;39.07
30935;BME280;51033;42.648;23.292;2023-04-07T06:51:50;93562.06;;;3.48;38.78
30935;BME280;51033;42.648;23.292;2023-04-07T06:54:15;93576.59;;;3.74;38.75
30935;BME280;51033;42.648;23.292;2023-04-07T06:56:41;93579.38;;;3.88;38.13
30935;BME280;51033;42.648;23.292;2023-04-07T06:59:07;93561.91;;;3.34;38.38
30935;BME280;51033;42.648;23.292;2023-04-07T07:01:32;93557.63;;;3.05;39.03
30935;BME280;51033;42.648;23.292;2023-04-07T07:03:58;93583.50;;;3.31;39.56
30935;BME280;51033;42.648;23.292;2023-04-07T07:06:27;93560.03;;;3.40;38.86
30935;BME280;51033;42.648;23.292;2023-04-07T07:08:53;93572.94;;;3.70;38.47
30935;BME280;51033;42.648;23.292;2023-04-07T07:11:18;93561.66;;;3.70;38.31
30935;BME280;51033;42.648;23.292;2023-04-07T07:13:45;93536.03;;;3.52;38.25
30935;BME280;51033;42.648;23.292;2023-04-07T07:16:10;93590.84;;;3.97;37.74
30935;BME280;51033;42.648;23.292;2023-04-07T07:18:37;93588.13;;;4.07;37.81
30935;BME280;51033;42.648;23.292;2023-04-07T07:21:02;93587.09;;;4.08;38.04
30935;BME280;51033;42.648;23.292;2023-04-07T07:23:28;93550.44;;;3.88;38.05
30935;BME280;51033;42.648;23.292;2023-04-07T07:25:53;93582.38;;;4.05;36.77
30935;BME280;51033;42.648;23.292;2023-04-07T07:28:18;93605.50;;;4.08;38.12
30935;BME280;51033;42.648;23.292;2023-04-07T07:30:45;93591.72;;;3.88;37.50
30935;BME280;51033;42.648;23.292;2023-04-07T07:33:11;93588.78;;;3.94;37.78
30935;BME280;51033;42.648;23.292;2023-04-07T07:35:36;93609.72;;;4.09;38.06
30935;BME280;51033;42.648;23.292;2023-04-07T07:38:02;93591.56;;;3.79;37.60
30935;BME280;51033;42.648;23.292;2023-04-07T07:40:28;93607.06;;;3.80;38.06
30935;BME280;51033;42.648;23.292;2023-04-07T07:42:53;93598.84;;;3.53;37.95
30935;BME280;51033;42.648;23.292;2023-04-07T07:45:18;93598.81;;;3.58;38.17
30935;BME280;51033;42.648;23.292;2023-04-07T07:47:44;93608.53;;;3.58;39.23
30935;BME280;51033;42.648;23.292;2023-04-07T07:50:09;93610.06;;;3.98;38.36
30935;BME280;51033;42.648;23.292;2023-04-07T07:52:35;93612.88;;;4.06;37.38
30935;BME280;51033;42.648;23.292;2023-04-07T07:55:01;93621.50;;;3.83;38.00
30935;BME280;51033;42.648;23.292;2023-04-07T07:57:26;93608.47;;;3.68;39.50
30935;BME280;51033;42.648;23.292;2023-04-07T07:59:52;93597.56;;;3.84;38.89
30935;BME280;51033;42.648;23.292;2023-04-07T08:02:17;93601.88;;;4.04;39.09
30935;BME280;51033;42.648;23.292;2023-04-07T08:04:43;93617.50;;;3.91;37.18
30935;BME280;51033;42.648;23.292;2023-04-07T08:07:08;93610.09;;;3.93;38.94
30935;BME280;51033;42.648;23.292;2023-04-07T08:09:36;93598.72;;;4.02;37.89
30935;BME280;51033;42.648;23.292;2023-04-07T08:12:02;93615.94;;;4.18;36.87
30935;BME280;51033;42.648;23.292;2023-04-07T08:14:28;93612.75;;;4.21;37.66
30935;BME280;51033;42.648;23.292;2023-04-07T08:16:53;93624.22;;;4.36;36.78
30935;BME280;51033;42.648;23.292;2023-04-07T08:19:19;93622.78;;;4.48;37.56
30935;BME280;51033;42.648;23.292;2023-04-07T08:21:45;93602.28;;;4.69;37.04
30935;BME280;51033;42.648;23.292;2023-04-07T08:24:10;93618.63;;;4.90;36.29
30935;BME280;51033;42.648;23.292;2023-04-07T08:26:36;93626.72;;;4.98;36.59
30935;BME280;51033;42.648;23.292;2023-04-07T08:29:01;93621.13;;;5.00;36.32
30935;BME280;51033;42.648;23.292;2023-04-07T08:31:26;93592.63;;;4.83;35.76
30935;BME280;51033;42.648;23.292;2023-04-07T08:33:52;93617.78;;;4.70;37.38
30935;BME280;51033;42.648;23.292;2023-04-07T08:36:25;93615.28;;;4.60;36.87
30935;BME280;51033;42.648;23.292;2023-04-07T08:38:52;93612.38;;;4.62;36.81
30935;BME280;51033;42.648;23.292;2023-04-07T08:41:28;93626.16;;;4.54;38.56
30935;BME280;51033;42.648;23.292;2023-04-07T08:43:56;93624.59;;;4.53;37.19
30935;BME280;51033;42.648;23.292;2023-04-07T08:46:24;93607.84;;;4.67;37.05
30935;BME280;51033;42.648;23.292;2023-04-07T08:48:50;93614.88;;;4.72;36.81
30935;BME280;51033;42.648;23.292;2023-04-07T08:51:31;93598.09;;;4.68;37.49
30935;BME280;51033;42.648;23.292;2023-04-07T08:54:05;93612.22;;;4.96;36.89
30935;BME280;51033;42.648;23.292;2023-04-07T08:56:33;93610.72;;;5.13;36.33
30935;BME280;51033;42.648;23.292;2023-04-07T08:59:00;93577.69;;;4.97;36.67
30935;BME280;51033;42.648;23.292;2023-04-07T09:01:26;93607.09;;;5.28;36.57
30935;BME280;51033;42.648;23.292;2023-04-07T09:03:55;93614.47;;;5.26;37.06
30935;BME280;51033;42.648;23.292;2023-04-07T09:06:22;93620.22;;;5.33;36.30
30935;BME280;51033;42.648;23.292;2023-04-07T09:08:47;93611.44;;;5.38;36.73
30935;BME280;51033;42.648;23.292;2023-04-07T09:11:13;93598.38;;;5.28;35.45
30935;BME280;51033;42.648;23.292;2023-04-07T09:13:38;93591.19;;;5.33;36.96
30935;BME280;51033;42.648;23.292;2023-04-07T09:16:04;93619.81;;;5.58;36.58
30935;BME280;51033;42.648;23.292;2023-04-07T09:18:29;93606.66;;;5.40;36.04
30935;BME280;51033;42.648;23.292;2023-04-07T09:21:02;93590.53;;;5.23;36.15
30935;BME280;51033;42.648;23.292;2023-04-07T09:23:39;93614.41;;;5.31;36.27
30935;BME280;51033;42.648;23.292;2023-04-07T09:28:43;93595.06;;;5.73;35.86
30935;BME280;51033;42.648;23.292;2023-04-07T09:31:10;93624.53;;;5.80;35.46
30935;BME280;51033;42.648;23.292;2023-04-07T09:33:36;93620.75;;;5.86;35.33
30935;BME280;51033;42.648;23.292;2023-04-07T09:36:02;93598.94;;;5.81;34.64
30935;BME280;51033;42.648;23.292;2023-04-07T09:38:35;93621.97;;;5.75;36.07
30935;BME280;51033;42.648;23.292;2023-04-07T09:41:15;93620.88;;;5.95;36.15
30935;BME280;51033;42.648;23.292;2023-04-07T09:43:42;93631.00;;;6.07;35.82
30935;BME280;51033;42.648;23.292;2023-04-07T09:46:13;93624.91;;;6.06;35.68
30935;BME280;51033;42.648;23.292;2023-04-07T09:48:39;93626.97;;;6.09;35.80
30935;BME280;51033;42.648;23.292;2023-04-07T09:53:58;93632.84;;;5.87;35.61
30935;BME280;51033;42.648;23.292;2023-04-07T09:56:24;93615.25;;;5.83;35.09
30935;BME280;51033;42.648;23.292;2023-04-07T09:58:51;93631.47;;;6.09;35.70
30935;BME280;51033;42.648;23.292;2023-04-07T10:01:17;93640.44;;;6.08;35.04
30935;BME280;51033;42.648;23.292;2023-04-07T10:03:44;93631.16;;;5.96;35.71
30935;BME280;51033;42.648;23.292;2023-04-07T10:06:11;93623.31;;;5.91;35.64
30935;BME280;51033;42.648;23.292;2023-04-07T10:08:39;93631.00;;;6.07;35.75
30935;BME280;51033;42.648;23.292;2023-04-07T10:11:06;93630.19;;;6.06;35.65
30935;BME280;51033;42.648;23.292;2023-04-07T10:13:36;93626.44;;;5.93;35.84
30935;BME280;51033;42.648;23.292;2023-04-07T10:16:05;93616.84;;;5.97;36.12
30935;BME280;51033;42.648;23.292;2023-04-07T10:18:35;93635.69;;;6.10;35.40
30935;BME280;51033;42.648;23.292;2023-04-07T10:21:02;93607.31;;;6.02;36.28
30935;BME280;51033;42.648;23.292;2023-04-07T10:23:59;93635.78;;;6.37;35.32
30935;BME280;51033;42.648;23.292;2023-04-07T10:26:31;93632.34;;;6.36;35.39
30935;BME280;51033;42.648;23.292;2023-04-07T10:29:02;93606.53;;;6.01;35.08
30935;BME280;51033;42.648;23.292;2023-04-07T10:31:30;93631.84;;;6.21;36.14
30935;BME280;51033;42.648;23.292;2023-04-07T10:33:56;93644.19;;;6.39;35.43
30935;BME280;51033;42.648;23.292;2023-04-07T10:36:22;93633.94;;;6.51;35.52
30935;BME280;51033;42.648;23.292;2023-04-07T10:41:38;93637.38;;;6.65;35.36
30935;BME280;51033;42.648;23.292;2023-04-07T10:44:09;93614.00;;;6.72;35.29
30935;BME280;51033;42.648;23.292;2023-04-07T10:49:11;93620.63;;;6.56;34.35
30935;BME280;51033;42.648;23.292;2023-04-07T10:51:40;93639.91;;;6.57;35.37
30935;BME280;51033;42.648;23.292;2023-04-07T10:54:22;93647.22;;;6.46;36.19
30935;BME280;51033;42.648;23.292;2023-04-07T10:59:32;93644.00;;;6.35;38.01
30935;BME280;51033;42.648;23.292;2023-04-07T11:04:43;93661.81;;;6.43;37.74
30935;BME280;51033;42.648;23.292;2023-04-07T11:07:09;93653.28;;;6.33;38.25
30935;BME280;51033;42.648;23.292;2023-04-07T11:09:35;93658.59;;;6.47;37.75
30935;BME280;51033;42.648;23.292;2023-04-07T11:12:01;93662.41;;;6.40;38.16
30935;BME280;51033;42.648;23.292;2023-04-07T11:14:31;93643.94;;;6.22;38.08
30935;BME280;51033;42.648;23.292;2023-04-07T11:16:58;93653.00;;;5.65;39.12
30935;BME280;51033;42.648;23.292;2023-04-07T11:19:25;93653.84;;;5.79;39.46
30935;BME280;51033;42.648;23.292;2023-04-07T11:22:17;93657.63;;;5.91;39.27
30935;BME280;51033;42.648;23.292;2023-04-07T11:24:44;93657.75;;;6.19;38.13
30935;BME280;51033;42.648;23.292;2023-04-07T11:27:13;93653.97;;;6.06;38.20
30935;BME280;51033;42.648;23.292;2023-04-07T11:29:39;93644.28;;;6.34;39.39
30935;BME280;51033;42.648;23.292;2023-04-07T11:32:05;93656.97;;;5.99;37.81
30935;BME280;51033;42.648;23.292;2023-04-07T11:34:32;93662.00;;;6.47;38.67
30935;BME280;51033;42.648;23.292;2023-04-07T11:36:58;93667.53;;;6.64;38.20
30935;BME280;51033;42.648;23.292;2023-04-07T11:39:42;93642.63;;;6.38;38.16
30935;BME280;51033;42.648;23.292;2023-04-07T11:42:10;93673.53;;;6.70;38.48
30935;BME280;51033;42.648;23.292;2023-04-07T11:44:44;93664.03;;;6.82;37.82
30935;BME280;51033;42.648;23.292;2023-04-07T11:47:10;93662.44;;;6.54;38.24
30935;BME280;51033;42.648;23.292;2023-04-07T11:49:43;93665.97;;;6.91;37.92
30935;BME280;51033;42.648;23.292;2023-04-07T11:52:09;93660.88;;;6.80;38.41
30935;BME280;51033;42.648;23.292;2023-04-07T11:57:04;93637.06;;;6.39;38.55
30935;BME280;51033;42.648;23.292;2023-04-07T11:59:30;93637.78;;;6.59;38.50
30935;BME280;51033;42.648;23.292;2023-04-07T12:01:56;93665.78;;;6.60;38.53
30935;BME280;51033;42.648;23.292;2023-04-07T12:04:22;93646.50;;;6.59;38.95
30935;BME280;51033;42.648;23.292;2023-04-07T12:06:48;93648.81;;;6.47;39.68
30935;BME280;51033;42.648;23.292;2023-04-07T12:09:30;93639.72;;;6.67;39.28
30935;BME280;51033;42.648;23.292;2023-04-07T12:11:57;93657.72;;;6.51;39.18
30935;BME280;51033;42.648;23.292;2023-04-07T12:14:26;93655.06;;;5.86;39.85
30935;BME280;51033;42.648;23.292;2023-04-07T12:16:54;93657.34;;;5.74;40.41
30935;BME280;51033;42.648;23.292;2023-04-07T12:19:21;93638.91;;;5.88;40.91
30935;BME280;51033;42.648;23.292;2023-04-07T12:21:48;93658.47;;;6.38;39.86
30935;BME280;51033;42.648;23.292;2023-04-07T12:24:13;93658.03;;;6.63;40.30
30935;BME280;51033;42.648;23.292;2023-04-07T12:26:38;93638.25;;;6.61;39.24
30935;BME280;51033;42.648;23.292;2023-04-07T12:29:04;93655.44;;;6.31;39.08
30935;BME280;51033;42.648;23.292;2023-04-07T12:31:30;93616.28;;;6.00;39.71
30935;BME280;51033;42.648;23.292;2023-04-07T12:33:57;93664.63;;;6.33;39.98
30935;BME280;51033;42.648;23.292;2023-04-07T12:36:23;93659.88;;;6.49;39.21
30935;BME280;51033;42.648;23.292;2023-04-07T12:38:49;93664.97;;;6.59;38.45
30935;BME280;51033;42.648;23.292;2023-04-07T12:41:14;93653.44;;;6.55;39.07
30935;BME280;51033;42.648;23.292;2023-04-07T12:43:39;93647.25;;;5.95;39.76
30935;BME280;51033;42.648;23.292;2023-04-07T12:46:05;93613.31;;;5.88;39.60
30935;BME280;51033;42.648;23.292;2023-04-07T12:48:30;93629.69;;;6.23;39.40
30935;BME280;51033;42.648;23.292;2023-04-07T12:50:57;93649.41;;;6.44;39.40
30935;BME280;51033;42.648;23.292;2023-04-07T12:53:22;93640.97;;;6.56;39.01
30935;BME280;51033;42.648;23.292;2023-04-07T12:55:47;93650.59;;;6.65;39.16
30935;BME280;51033;42.648;23.292;2023-04-07T12:58:13;93646.22;;;6.88;38.54
30935;BME280;51033;42.648;23.292;2023-04-07T13:00:38;93656.88;;;6.69;38.61
30935;BME280;51033;42.648;23.292;2023-04-07T13:03:05;93625.06;;;6.74;38.58
30935;BME280;51033;42.648;23.292;2023-04-07T13:05:31;93659.53;;;6.97;38.53
30935;BME280;51033;42.648;23.292;2023-04-07T13:07:56;93655.41;;;6.63;38.54
30935;BME280;51033;42.648;23.292;2023-04-07T13:10:22;93666.84;;;6.08;40.03
30935;BME280;51033;42.648;23.292;2023-04-07T13:12:47;93677.63;;;6.30;40.23
30935;BME280;51033;42.648;23.292;2023-04-07T13:15:13;93662.75;;;6.20;39.40
30935;BME280;51033;42.648;23.292;2023-04-07T13:17:39;93679.84;;;6.55;39.63
30935;BME280;51033;42.648;23.292;2023-04-07T13:20:05;93655.28;;;6.22;40.24
30935;BME280;51033;42.648;23.292;2023-04-07T13:22:31;93671.03;;;5.95;40.81